sensor_id;sensor_type;location;lat;lon;timestamp;temperature;humidity
51215;DHT22;63849;47.546;19.254;2024-01-30T00:01:26;1.10;76.80
51215;DHT22;63849;47.546;19.254;2024-01-30T00:03:52;1.10;77.30
51215;DHT22;63849;47.546;19.254;2024-01-30T00:06:21;1.10;76.80
51215;DHT22;63849;47.546;19.254;2024-01-30T00:08:47;1.00;76.80
51215;DHT22;63849;47.546;19.254;2024-01-30T00:11:14;1.00;76.60
51215;DHT22;63849;47.546;19.254;2024-01-30T00:13:40;1.00;77.00
51215;DHT22;63849;47.546;19.254;2024-01-30T00:16:07;1.00;76.60
51215;DHT22;63849;47.546;19.254;2024-01-30T00:18:33;1.00;75.90
51215;DHT22;63849;47.546;19.254;2024-01-30T00:20:59;1.00;76.00
51215;DHT22;63849;47.546;19.254;2024-01-30T00:23:24;0.90;76.60
51215;DHT22;63849;47.546;19.254;2024-01-30T00:25:50;0.90;76.00
51215;DHT22;63849;47.546;19.254;2024-01-30T00:28:16;1.00;76.80
51215;DHT22;63849;47.546;19.254;2024-01-30T00:30:41;1.00;77.10
51215;DHT22;63849;47.546;19.254;2024-01-30T00:33:08;0.90;77.50
51215;DHT22;63849;47.546;19.254;2024-01-30T00:35:34;0.90;77.30
51215;DHT22;63849;47.546;19.254;2024-01-30T00:37:59;1.00;77.20
51215;DHT22;63849;47.546;19.254;2024-01-30T00:40:25;1.00;76.70
51215;DHT22;63849;47.546;19.254;2024-01-30T00:42:50;1.00;76.20
51215;DHT22;63849;47.546;19.254;2024-01-30T00:45:16;0.90;75.90
51215;DHT22;63849;47.546;19.254;2024-01-30T00:47:42;0.90;75.80
51215;DHT22;63849;47.546;19.254;2024-01-30T00:50:09;0.90;77.00
51215;DHT22;63849;47.546;19.254;2024-01-30T00:52:34;0.80;76.60
51215;DHT22;63849;47.546;19.254;2024-01-30T00:55:01;0.80;76.80
51215;DHT22;63849;47.546;19.254;2024-01-30T00:57:28;0.70;76.70
51215;DHT22;63849;47.546;19.254;2024-01-30T00:59:54;0.70;76.50
51215;DHT22;63849;47.546;19.254;2024-01-30T01:02:20;0.70;76.90
51215;DHT22;63849;47.546;19.254;2024-01-30T01:04:45;0.70;76.30
51215;DHT22;63849;47.546;19.254;2024-01-30T01:07:11;0.70;77.00
51215;DHT22;63849;47.546;19.254;2024-01-30T01:09:37;0.70;77.30
51215;DHT22;63849;47.546;19.254;2024-01-30T01:12:03;0.70;76.80
51215;DHT22;63849;47.546;19.254;2024-01-30T01:14:29;0.60;76.80
51215;DHT22;63849;47.546;19.254;2024-01-30T01:16:55;0.70;76.40
51215;DHT22;63849;47.546;19.254;2024-01-30T01:19:21;0.70;76.50
51215;DHT22;63849;47.546;19.254;2024-01-30T01:21:47;0.60;76.10
51215;DHT22;63849;47.546;19.254;2024-01-30T01:24:12;0.70;76.10
51215;DHT22;63849;47.546;19.254;2024-01-30T01:26:38;0.60;75.70
51215;DHT22;63849;47.546;19.254;2024-01-30T01:29:04;0.70;76.20
51215;DHT22;63849;47.546;19.254;2024-01-30T01:31:37;0.70;76.40
51215;DHT22;63849;47.546;19.254;2024-01-30T01:34:12;0.70;76.70
51215;DHT22;63849;47.546;19.254;2024-01-30T01:36:39;0.70;76.90
51215;DHT22;63849;47.546;19.254;2024-01-30T01:39:05;0.60;76.10
51215;DHT22;63849;47.546;19.254;2024-01-30T01:41:34;0.60;76.20
51215;DHT22;63849;47.546;19.254;2024-01-30T01:44:00;0.50;76.30
51215;DHT22;63849;47.546;19.254;2024-01-30T01:46:32;0.60;76.60
51215;DHT22;63849;47.546;19.254;2024-01-30T01:48:58;0.50;76.30
51215;DHT22;63849;47.546;19.254;2024-01-30T01:51:27;0.50;75.90
51215;DHT22;63849;47.546;19.254;2024-01-30T01:53:54;0.50;75.80
51215;DHT22;63849;47.546;19.254;2024-01-30T01:56:25;0.50;76.10
51215;DHT22;63849;47.546;19.254;2024-01-30T01:58:54;0.50;76.30
51215;DHT22;63849;47.546;19.254;2024-01-30T02:01:20;0.40;76.00
51215;DHT22;63849;47.546;19.254;2024-01-30T02:03:47;0.50;77.00
51215;DHT22;63849;47.546;19.254;2024-01-30T02:06:14;0.40;76.40
51215;DHT22;63849;47.546;19.254;2024-01-30T02:08:40;0.40;76.40
51215;DHT22;63849;47.546;19.254;2024-01-30T02:11:06;0.40;76.20
51215;DHT22;63849;47.546;19.254;2024-01-30T02:13:32;0.50;76.30
51215;DHT22;63849;47.546;19.254;2024-01-30T02:15:57;0.50;76.10
51215;DHT22;63849;47.546;19.254;2024-01-30T02:18:23;0.50;76.30
51215;DHT22;63849;47.546;19.254;2024-01-30T02:20:49;0.50;76.10
51215;DHT22;63849;47.546;19.254;2024-01-30T02:23:16;0.40;76.10
51215;DHT22;63849;47.546;19.254;2024-01-30T02:25:42;0.30;76.10
51215;DHT22;63849;47.546;19.254;2024-01-30T02:28:13;0.30;75.90
51215;DHT22;63849;47.546;19.254;2024-01-30T02:30:40;0.30;76.00
51215;DHT22;63849;47.546;19.254;2024-01-30T02:33:05;0.30;76.50
51215;DHT22;63849;47.546;19.254;2024-01-30T02:35:31;0.40;76.40
51215;DHT22;63849;47.546;19.254;2024-01-30T02:37:57;0.40;76.40
51215;DHT22;63849;47.546;19.254;2024-01-30T02:40:23;0.30;76.70
51215;DHT22;63849;47.546;19.254;2024-01-30T02:42:48;0.30;76.00
51215;DHT22;63849;47.546;19.254;2024-01-30T02:45:14;0.30;75.80
51215;DHT22;63849;47.546;19.254;2024-01-30T02:47:40;0.30;77.00
51215;DHT22;63849;47.546;19.254;2024-01-30T02:50:06;0.30;77.20
51215;DHT22;63849;47.546;19.254;2024-01-30T02:52:32;0.30;76.60
51215;DHT22;63849;47.546;19.254;2024-01-30T02:54:58;0.30;76.00
51215;DHT22;63849;47.546;19.254;2024-01-30T02:57:24;0.30;76.20
51215;DHT22;63849;47.546;19.254;2024-01-30T02:59:49;0.30;76.40
51215;DHT22;63849;47.546;19.254;2024-01-30T03:02:15;0.30;75.80
51215;DHT22;63849;47.546;19.254;2024-01-30T03:04:41;0.30;75.70
51215;DHT22;63849;47.546;19.254;2024-01-30T03:07:07;0.30;75.40
51215;DHT22;63849;47.546;19.254;2024-01-30T03:09:32;0.20;75.70
51215;DHT22;63849;47.546;19.254;2024-01-30T03:11:58;0.30;75.50
51215;DHT22;63849;47.546;19.254;2024-01-30T03:14:24;0.30;75.70
51215;DHT22;63849;47.546;19.254;2024-01-30T03:16:50;0.30;75.70
51215;DHT22;63849;47.546;19.254;2024-01-30T03:19:15;0.30;75.60
51215;DHT22;63849;47.546;19.254;2024-01-30T03:21:41;0.30;75.80
51215;DHT22;63849;47.546;19.254;2024-01-30T03:24:07;0.20;76.50
51215;DHT22;63849;47.546;19.254;2024-01-30T03:26:32;0.30;76.60
51215;DHT22;63849;47.546;19.254;2024-01-30T03:28:58;0.30;77.20
51215;DHT22;63849;47.546;19.254;2024-01-30T03:31:24;0.30;76.80
51215;DHT22;63849;47.546;19.254;2024-01-30T03:33:49;0.30;77.00
51215;DHT22;63849;47.546;19.254;2024-01-30T03:36:15;0.30;76.50
51215;DHT22;63849;47.546;19.254;2024-01-30T03:38:41;0.30;76.70
51215;DHT22;63849;47.546;19.254;2024-01-30T03:41:10;0.20;76.80
51215;DHT22;63849;47.546;19.254;2024-01-30T03:43:36;0.30;77.60
51215;DHT22;63849;47.546;19.254;2024-01-30T03:46:02;0.30;77.60
51215;DHT22;63849;47.546;19.254;2024-01-30T03:48:29;0.20;76.70
51215;DHT22;63849;47.546;19.254;2024-01-30T03:50:55;0.20;76.10
51215;DHT22;63849;47.546;19.254;2024-01-30T03:53:20;0.30;76.30
51215;DHT22;63849;47.546;19.254;2024-01-30T03:55:46;0.20;76.30
51215;DHT22;63849;47.546;19.254;2024-01-30T03:58:12;0.20;76.40
51215;DHT22;63849;47.546;19.254;2024-01-30T04:00:37;0.20;76.50
51215;DHT22;63849;47.546;19.254;2024-01-30T04:03:03;0.20;76.10
51215;DHT22;63849;47.546;19.254;2024-01-30T04:05:29;0.20;75.50
51215;DHT22;63849;47.546;19.254;2024-01-30T04:07:54;0.20;76.10
51215;DHT22;63849;47.546;19.254;2024-01-30T04:10:20;0.10;75.70
51215;DHT22;63849;47.546;19.254;2024-01-30T04:12:46;0.20;75.90
51215;DHT22;63849;47.546;19.254;2024-01-30T04:15:11;0.10;77.00
51215;DHT22;63849;47.546;19.254;2024-01-30T04:17:39;0.30;77.30
51215;DHT22;63849;47.546;19.254;2024-01-30T04:20:05;0.30;76.60
51215;DHT22;63849;47.546;19.254;2024-01-30T04:22:31;0.20;76.40
51215;DHT22;63849;47.546;19.254;2024-01-30T04:24:57;0.20;76.20
51215;DHT22;63849;47.546;19.254;2024-01-30T04:27:22;0.30;75.50
51215;DHT22;63849;47.546;19.254;2024-01-30T04:29:48;0.30;75.60
51215;DHT22;63849;47.546;19.254;2024-01-30T04:32:14;0.20;75.50
51215;DHT22;63849;47.546;19.254;2024-01-30T04:34:39;0.20;75.60
51215;DHT22;63849;47.546;19.254;2024-01-30T04:37:05;0.30;75.90
51215;DHT22;63849;47.546;19.254;2024-01-30T04:39:33;0.20;76.70
51215;DHT22;63849;47.546;19.254;2024-01-30T04:41:58;0.20;77.10
51215;DHT22;63849;47.546;19.254;2024-01-30T04:44:24;0.30;77.10
51215;DHT22;63849;47.546;19.254;2024-01-30T04:46:50;0.30;76.80
51215;DHT22;63849;47.546;19.254;2024-01-30T04:49:16;0.20;76.60
51215;DHT22;63849;47.546;19.254;2024-01-30T04:51:41;0.10;77.60
51215;DHT22;63849;47.546;19.254;2024-01-30T04:54:07;0.10;77.10
51215;DHT22;63849;47.546;19.254;2024-01-30T04:56:33;0.20;77.20
51215;DHT22;63849;47.546;19.254;2024-01-30T04:58:59;0.30;77.20
51215;DHT22;63849;47.546;19.254;2024-01-30T05:01:25;0.30;76.50
51215;DHT22;63849;47.546;19.254;2024-01-30T05:03:51;0.20;76.40
51215;DHT22;63849;47.546;19.254;2024-01-30T05:06:26;0.20;76.70
51215;DHT22;63849;47.546;19.254;2024-01-30T05:08:52;0.30;77.10
51215;DHT22;63849;47.546;19.254;2024-01-30T05:11:18;0.20;77.10
51215;DHT22;63849;47.546;19.254;2024-01-30T05:13:44;0.20;77.30
51215;DHT22;63849;47.546;19.254;2024-01-30T05:16:10;0.20;77.30
51215;DHT22;63849;47.546;19.254;2024-01-30T05:18:35;0.20;76.90
51215;DHT22;63849;47.546;19.254;2024-01-30T05:21:02;0.10;76.70
51215;DHT22;63849;47.546;19.254;2024-01-30T05:23:28;0.20;77.00
51215;DHT22;63849;47.546;19.254;2024-01-30T05:25:53;0.20;76.60
51215;DHT22;63849;47.546;19.254;2024-01-30T05:28:19;0.10;76.60
51215;DHT22;63849;47.546;19.254;2024-01-30T05:30:44;0.20;76.30
51215;DHT22;63849;47.546;19.254;2024-01-30T05:33:10;0.10;76.60
51215;DHT22;63849;47.546;19.254;2024-01-30T05:35:37;0.10;76.30
51215;DHT22;63849;47.546;19.254;2024-01-30T05:38:03;0.10;76.90
51215;DHT22;63849;47.546;19.254;2024-01-30T05:40:30;0.00;77.20
51215;DHT22;63849;47.546;19.254;2024-01-30T05:42:56;0.00;77.10
51215;DHT22;63849;47.546;19.254;2024-01-30T05:45:23;0.10;76.60
51215;DHT22;63849;47.546;19.254;2024-01-30T05:47:49;0.00;76.40
51215;DHT22;63849;47.546;19.254;2024-01-30T05:50:15;0.00;76.80
51215;DHT22;63849;47.546;19.254;2024-01-30T05:52:40;0.00;76.30
51215;DHT22;63849;47.546;19.254;2024-01-30T05:55:06;0.00;76.20
51215;DHT22;63849;47.546;19.254;2024-01-30T05:57:32;0.00;76.10
51215;DHT22;63849;47.546;19.254;2024-01-30T05:59:58;0.00;76.50
51215;DHT22;63849;47.546;19.254;2024-01-30T06:02:23;0.00;77.10
51215;DHT22;63849;47.546;19.254;2024-01-30T06:04:49;0.10;77.60
51215;DHT22;63849;47.546;19.254;2024-01-30T06:07:15;0.00;77.80
51215;DHT22;63849;47.546;19.254;2024-01-30T06:09:41;0.10;78.10
51215;DHT22;63849;47.546;19.254;2024-01-30T06:12:07;0.10;78.50
51215;DHT22;63849;47.546;19.254;2024-01-30T06:14:32;0.10;78.90
51215;DHT22;63849;47.546;19.254;2024-01-30T06:16:59;0.10;79.40
51215;DHT22;63849;47.546;19.254;2024-01-30T06:19:24;0.10;79.60
51215;DHT22;63849;47.546;19.254;2024-01-30T06:21:50;0.20;79.40
51215;DHT22;63849;47.546;19.254;2024-01-30T06:24:16;0.20;79.40
51215;DHT22;63849;47.546;19.254;2024-01-30T06:26:42;0.20;79.30
51215;DHT22;63849;47.546;19.254;2024-01-30T06:29:08;0.20;79.30
51215;DHT22;63849;47.546;19.254;2024-01-30T06:31:42;0.20;79.30
51215;DHT22;63849;47.546;19.254;2024-01-30T06:34:11;0.30;79.50
51215;DHT22;63849;47.546;19.254;2024-01-30T06:36:37;0.30;79.20
51215;DHT22;63849;47.546;19.254;2024-01-30T06:39:03;0.30;79.10
51215;DHT22;63849;47.546;19.254;2024-01-30T06:41:29;0.30;78.90
51215;DHT22;63849;47.546;19.254;2024-01-30T06:43:58;0.40;78.80
51215;DHT22;63849;47.546;19.254;2024-01-30T06:46:23;0.40;78.70
51215;DHT22;63849;47.546;19.254;2024-01-30T06:48:49;0.30;78.60
51215;DHT22;63849;47.546;19.254;2024-01-30T06:51:15;0.30;78.70
51215;DHT22;63849;47.546;19.254;2024-01-30T06:53:40;0.40;79.00
51215;DHT22;63849;47.546;19.254;2024-01-30T06:56:06;0.40;79.20
51215;DHT22;63849;47.546;19.254;2024-01-30T06:58:32;0.50;79.00
51215;DHT22;63849;47.546;19.254;2024-01-30T07:00:58;0.50;79.00
51215;DHT22;63849;47.546;19.254;2024-01-30T07:03:24;0.60;79.10
51215;DHT22;63849;47.546;19.254;2024-01-30T07:05:49;0.60;79.00
51215;DHT22;63849;47.546;19.254;2024-01-30T07:08:16;0.70;78.80
51215;DHT22;63849;47.546;19.254;2024-01-30T07:10:43;0.70;79.00
51215;DHT22;63849;47.546;19.254;2024-01-30T07:13:10;0.70;79.10
51215;DHT22;63849;47.546;19.254;2024-01-30T07:15:35;0.80;79.50
51215;DHT22;63849;47.546;19.254;2024-01-30T07:18:02;0.80;79.20
51215;DHT22;63849;47.546;19.254;2024-01-30T07:20:28;0.80;79.40
51215;DHT22;63849;47.546;19.254;2024-01-30T07:22:56;0.80;79.80
51215;DHT22;63849;47.546;19.254;2024-01-30T07:25:22;0.80;80.20
51215;DHT22;63849;47.546;19.254;2024-01-30T07:27:55;0.90;80.60
51215;DHT22;63849;47.546;19.254;2024-01-30T07:30:21;0.90;80.20
51215;DHT22;63849;47.546;19.254;2024-01-30T07:32:47;1.00;80.10
51215;DHT22;63849;47.546;19.254;2024-01-30T07:35:13;1.00;80.10
51215;DHT22;63849;47.546;19.254;2024-01-30T07:37:39;1.00;80.40
51215;DHT22;63849;47.546;19.254;2024-01-30T07:40:05;1.00;80.80
51215;DHT22;63849;47.546;19.254;2024-01-30T07:42:32;1.20;80.70
51215;DHT22;63849;47.546;19.254;2024-01-30T07:44:58;1.20;80.80
51215;DHT22;63849;47.546;19.254;2024-01-30T07:47:24;1.30;80.90
51215;DHT22;63849;47.546;19.254;2024-01-30T07:49:50;1.30;81.10
51215;DHT22;63849;47.546;19.254;2024-01-30T07:52:15;1.40;81.30
51215;DHT22;63849;47.546;19.254;2024-01-30T07:54:41;1.50;81.30
51215;DHT22;63849;47.546;19.254;2024-01-30T07:57:25;1.50;81.40
51215;DHT22;63849;47.546;19.254;2024-01-30T07:59:51;1.60;81.50
51215;DHT22;63849;47.546;19.254;2024-01-30T08:02:16;1.60;81.60
51215;DHT22;63849;47.546;19.254;2024-01-30T08:04:42;1.70;81.70
51215;DHT22;63849;47.546;19.254;2024-01-30T08:07:08;1.70;81.70
51215;DHT22;63849;47.546;19.254;2024-01-30T08:09:33;1.80;81.70
51215;DHT22;63849;47.546;19.254;2024-01-30T08:11:59;1.80;81.70
51215;DHT22;63849;47.546;19.254;2024-01-30T08:14:24;1.80;81.80
51215;DHT22;63849;47.546;19.254;2024-01-30T08:16:51;2.00;81.80
51215;DHT22;63849;47.546;19.254;2024-01-30T08:19:17;2.00;81.90
51215;DHT22;63849;47.546;19.254;2024-01-30T08:21:42;2.10;81.90
51215;DHT22;63849;47.546;19.254;2024-01-30T08:24:08;2.00;81.90
51215;DHT22;63849;47.546;19.254;2024-01-30T08:26:34;2.10;81.90
51215;DHT22;63849;47.546;19.254;2024-01-30T08:29:01;2.20;81.80
51215;DHT22;63849;47.546;19.254;2024-01-30T08:31:26;2.20;81.90
51215;DHT22;63849;47.546;19.254;2024-01-30T08:33:52;2.30;81.90
51215;DHT22;63849;47.546;19.254;2024-01-30T08:36:18;2.30;81.80
51215;DHT22;63849;47.546;19.254;2024-01-30T08:38:44;2.30;81.80
51215;DHT22;63849;47.546;19.254;2024-01-30T08:41:10;2.30;81.90
51215;DHT22;63849;47.546;19.254;2024-01-30T08:43:35;2.40;82.00
51215;DHT22;63849;47.546;19.254;2024-01-30T08:46:02;2.50;81.80
51215;DHT22;63849;47.546;19.254;2024-01-30T08:48:27;2.50;81.90
51215;DHT22;63849;47.546;19.254;2024-01-30T08:50:53;2.50;81.90
51215;DHT22;63849;47.546;19.254;2024-01-30T08:53:19;2.60;81.80
51215;DHT22;63849;47.546;19.254;2024-01-30T08:55:45;2.60;81.80
51215;DHT22;63849;47.546;19.254;2024-01-30T08:58:10;2.60;81.90
51215;DHT22;63849;47.546;19.254;2024-01-30T09:00:36;2.80;82.00
51215;DHT22;63849;47.546;19.254;2024-01-30T09:03:03;2.70;81.90
51215;DHT22;63849;47.546;19.254;2024-01-30T09:05:28;2.80;81.80
51215;DHT22;63849;47.546;19.254;2024-01-30T09:07:54;2.80;81.90
51215;DHT22;63849;47.546;19.254;2024-01-30T09:10:20;2.80;81.70
51215;DHT22;63849;47.546;19.254;2024-01-30T09:12:46;2.80;81.70
51215;DHT22;63849;47.546;19.254;2024-01-30T09:15:12;2.90;81.70
51215;DHT22;63849;47.546;19.254;2024-01-30T09:17:37;2.90;81.60
51215;DHT22;63849;47.546;19.254;2024-01-30T09:20:04;2.90;81.70
51215;DHT22;63849;47.546;19.254;2024-01-30T09:22:29;2.90;81.70
51215;DHT22;63849;47.546;19.254;2024-01-30T09:24:55;3.00;81.80
51215;DHT22;63849;47.546;19.254;2024-01-30T09:27:21;3.00;81.80
51215;DHT22;63849;47.546;19.254;2024-01-30T09:29:46;3.00;81.50
51215;DHT22;63849;47.546;19.254;2024-01-30T09:32:12;3.00;81.50
51215;DHT22;63849;47.546;19.254;2024-01-30T09:34:38;3.00;81.60
51215;DHT22;63849;47.546;19.254;2024-01-30T09:37:04;3.10;81.70
51215;DHT22;63849;47.546;19.254;2024-01-30T09:39:30;3.10;81.70
51215;DHT22;63849;47.546;19.254;2024-01-30T09:42:05;3.10;81.60
51215;DHT22;63849;47.546;19.254;2024-01-30T09:44:38;3.20;81.60
51215;DHT22;63849;47.546;19.254;2024-01-30T09:47:04;3.10;81.80
51215;DHT22;63849;47.546;19.254;2024-01-30T09:49:34;3.20;81.90
51215;DHT22;63849;47.546;19.254;2024-01-30T09:52:03;3.30;81.90
51215;DHT22;63849;47.546;19.254;2024-01-30T09:54:32;3.40;81.80
51215;DHT22;63849;47.546;19.254;2024-01-30T09:56:58;3.40;81.70
51215;DHT22;63849;47.546;19.254;2024-01-30T09:59:24;3.50;81.40
51215;DHT22;63849;47.546;19.254;2024-01-30T10:01:50;3.50;81.50
51215;DHT22;63849;47.546;19.254;2024-01-30T10:04:17;3.50;81.30
51215;DHT22;63849;47.546;19.254;2024-01-30T10:06:42;3.50;81.20
51215;DHT22;63849;47.546;19.254;2024-01-30T10:09:08;3.60;80.90
51215;DHT22;63849;47.546;19.254;2024-01-30T10:11:35;3.60;80.60
51215;DHT22;63849;47.546;19.254;2024-01-30T10:14:01;3.60;80.60
51215;DHT22;63849;47.546;19.254;2024-01-30T10:16:27;3.60;80.80
51215;DHT22;63849;47.546;19.254;2024-01-30T10:18:53;3.70;81.00
51215;DHT22;63849;47.546;19.254;2024-01-30T10:21:19;3.80;81.10
51215;DHT22;63849;47.546;19.254;2024-01-30T10:23:44;3.80;80.50
51215;DHT22;63849;47.546;19.254;2024-01-30T10:26:10;3.90;80.80
51215;DHT22;63849;47.546;19.254;2024-01-30T10:28:36;4.00;80.70
51215;DHT22;63849;47.546;19.254;2024-01-30T10:31:02;4.10;80.80
51215;DHT22;63849;47.546;19.254;2024-01-30T10:33:31;4.20;80.50
51215;DHT22;63849;47.546;19.254;2024-01-30T10:36:01;4.30;79.80
51215;DHT22;63849;47.546;19.254;2024-01-30T10:38:32;4.30;79.70
51215;DHT22;63849;47.546;19.254;2024-01-30T10:40:59;4.30;79.30
51215;DHT22;63849;47.546;19.254;2024-01-30T10:43:32;4.30;79.30
51215;DHT22;63849;47.546;19.254;2024-01-30T10:46:19;4.30;79.30
51215;DHT22;63849;47.546;19.254;2024-01-30T10:48:51;4.30;79.00
51215;DHT22;63849;47.546;19.254;2024-01-30T10:51:23;4.30;78.60
51215;DHT22;63849;47.546;19.254;2024-01-30T10:53:49;4.20;78.70
51215;DHT22;63849;47.546;19.254;2024-01-30T10:56:16;4.20;78.50
51215;DHT22;63849;47.546;19.254;2024-01-30T10:58:42;4.20;78.30
51215;DHT22;63849;47.546;19.254;2024-01-30T11:01:09;4.20;78.40
51215;DHT22;63849;47.546;19.254;2024-01-30T11:03:35;4.20;78.30
51215;DHT22;63849;47.546;19.254;2024-01-30T11:06:02;4.20;78.50
51215;DHT22;63849;47.546;19.254;2024-01-30T11:08:28;4.30;78.50
51215;DHT22;63849;47.546;19.254;2024-01-30T11:10:58;4.20;78.60
51215;DHT22;63849;47.546;19.254;2024-01-30T11:13:30;4.30;78.30
51215;DHT22;63849;47.546;19.254;2024-01-30T11:16:00;4.30;77.80
51215;DHT22;63849;47.546;19.254;2024-01-30T11:18:29;4.30;77.90
51215;DHT22;63849;47.546;19.254;2024-01-30T11:20:59;4.30;78.00
51215;DHT22;63849;47.546;19.254;2024-01-30T11:23:26;4.30;77.90
51215;DHT22;63849;47.546;19.254;2024-01-30T11:25:53;4.30;77.90
51215;DHT22;63849;47.546;19.254;2024-01-30T11:28:19;4.30;77.60
51215;DHT22;63849;47.546;19.254;2024-01-30T11:30:46;4.30;77.70
51215;DHT22;63849;47.546;19.254;2024-01-30T11:33:14;4.30;77.50
51215;DHT22;63849;47.546;19.254;2024-01-30T11:38:07;4.30;76.90
51215;DHT22;63849;47.546;19.254;2024-01-30T11:40:33;4.30;76.70
51215;DHT22;63849;47.546;19.254;2024-01-30T11:43:01;4.30;76.60
51215;DHT22;63849;47.546;19.254;2024-01-30T11:45:30;4.30;77.10
51215;DHT22;63849;47.546;19.254;2024-01-30T11:47:57;4.30;77.20
51215;DHT22;63849;47.546;19.254;2024-01-30T11:50:23;4.30;77.10
51215;DHT22;63849;47.546;19.254;2024-01-30T11:52:48;4.30;76.90
51215;DHT22;63849;47.546;19.254;2024-01-30T11:55:14;4.30;77.20
51215;DHT22;63849;47.546;19.254;2024-01-30T11:57:40;4.30;76.60
51215;DHT22;63849;47.546;19.254;2024-01-30T12:00:13;4.30;75.90
51215;DHT22;63849;47.546;19.254;2024-01-30T12:02:40;4.30;76.10
51215;DHT22;63849;47.546;19.254;2024-01-30T12:05:06;4.30;76.20
51215;DHT22;63849;47.546;19.254;2024-01-30T12:07:32;4.30;76.20
51215;DHT22;63849;47.546;19.254;2024-01-30T12:09:58;4.30;76.10
51215;DHT22;63849;47.546;19.254;2024-01-30T12:12:28;4.20;76.20
51215;DHT22;63849;47.546;19.254;2024-01-30T12:14:54;4.30;76.40
51215;DHT22;63849;47.546;19.254;2024-01-30T12:17:38;4.30;76.60
51215;DHT22;63849;47.546;19.254;2024-01-30T12:20:05;4.30;76.70
51215;DHT22;63849;47.546;19.254;2024-01-30T12:22:35;4.30;76.80
51215;DHT22;63849;47.546;19.254;2024-01-30T12:25:01;4.30;76.20
51215;DHT22;63849;47.546;19.254;2024-01-30T12:27:27;4.30;76.20
51215;DHT22;63849;47.546;19.254;2024-01-30T12:29:57;4.30;76.20
51215;DHT22;63849;47.546;19.254;2024-01-30T12:32:23;4.40;75.90
51215;DHT22;63849;47.546;19.254;2024-01-30T12:34:49;4.40;75.30
51215;DHT22;63849;47.546;19.254;2024-01-30T12:37:15;4.40;75.40
51215;DHT22;63849;47.546;19.254;2024-01-30T12:39:45;4.40;75.50
51215;DHT22;63849;47.546;19.254;2024-01-30T12:42:11;4.40;75.70
51215;DHT22;63849;47.546;19.254;2024-01-30T12:44:36;4.40;75.20
51215;DHT22;63849;47.546;19.254;2024-01-30T12:47:05;4.50;75.10
51215;DHT22;63849;47.546;19.254;2024-01-30T12:49:31;4.50;74.90
51215;DHT22;63849;47.546;19.254;2024-01-30T12:51:58;4.50;74.80
51215;DHT22;63849;47.546;19.254;2024-01-30T12:54:23;4.50;73.90
51215;DHT22;63849;47.546;19.254;2024-01-30T12:56:49;4.50;74.10
51215;DHT22;63849;47.546;19.254;2024-01-30T12:59:15;4.50;74.00
51215;DHT22;63849;47.546;19.254;2024-01-30T13:01:41;4.50;73.80
51215;DHT22;63849;47.546;19.254;2024-01-30T13:04:07;4.50;73.80
51215;DHT22;63849;47.546;19.254;2024-01-30T13:06:32;4.60;73.70
51215;DHT22;63849;47.546;19.254;2024-01-30T13:08:58;4.60;73.50
51215;DHT22;63849;47.546;19.254;2024-01-30T13:11:24;4.60;73.50
51215;DHT22;63849;47.546;19.254;2024-01-30T13:13:51;4.60;73.80
51215;DHT22;63849;47.546;19.254;2024-01-30T13:16:16;4.60;72.80
51215;DHT22;63849;47.546;19.254;2024-01-30T13:18:43;4.60;72.40
51215;DHT22;63849;47.546;19.254;2024-01-30T13:21:09;4.60;72.30
51215;DHT22;63849;47.546;19.254;2024-01-30T13:23:34;4.50;72.30
51215;DHT22;63849;47.546;19.254;2024-01-30T13:26:00;4.60;72.30
51215;DHT22;63849;47.546;19.254;2024-01-30T13:28:26;4.60;71.70
51215;DHT22;63849;47.546;19.254;2024-01-30T13:30:52;4.60;71.60
51215;DHT22;63849;47.546;19.254;2024-01-30T13:33:17;4.60;71.80
51215;DHT22;63849;47.546;19.254;2024-01-30T13:35:43;4.60;71.60
51215;DHT22;63849;47.546;19.254;2024-01-30T13:38:09;4.50;71.40
51215;DHT22;63849;47.546;19.254;2024-01-30T13:40:35;4.50;71.70
51215;DHT22;63849;47.546;19.254;2024-01-30T13:43:01;4.50;71.10
51215;DHT22;63849;47.546;19.254;2024-01-30T13:45:27;4.50;71.20
51215;DHT22;63849;47.546;19.254;2024-01-30T13:47:53;4.50;71.10
51215;DHT22;63849;47.546;19.254;2024-01-30T13:50:18;4.50;71.10
51215;DHT22;63849;47.546;19.254;2024-01-30T13:52:44;4.50;71.00
51215;DHT22;63849;47.546;19.254;2024-01-30T13:55:10;4.50;71.20
51215;DHT22;63849;47.546;19.254;2024-01-30T13:57:36;4.50;71.00
51215;DHT22;63849;47.546;19.254;2024-01-30T14:00:06;4.50;71.20
51215;DHT22;63849;47.546;19.254;2024-01-30T14:02:32;4.50;71.50
51215;DHT22;63849;47.546;19.254;2024-01-30T14:04:57;4.50;71.70
51215;DHT22;63849;47.546;19.254;2024-01-30T14:07:23;4.40;71.60
51215;DHT22;63849;47.546;19.254;2024-01-30T14:09:49;4.40;71.80
51215;DHT22;63849;47.546;19.254;2024-01-30T14:12:15;4.40;71.80
51215;DHT22;63849;47.546;19.254;2024-01-30T14:14:41;4.40;71.90
51215;DHT22;63849;47.546;19.254;2024-01-30T14:17:07;4.40;71.90
51215;DHT22;63849;47.546;19.254;2024-01-30T14:19:35;4.40;71.90
51215;DHT22;63849;47.546;19.254;2024-01-30T14:22:01;4.40;71.80
51215;DHT22;63849;47.546;19.254;2024-01-30T14:24:27;4.30;71.70
51215;DHT22;63849;47.546;19.254;2024-01-30T14:26:53;4.30;71.70
51215;DHT22;63849;47.546;19.254;2024-01-30T14:29:18;4.30;71.90
51215;DHT22;63849;47.546;19.254;2024-01-30T14:31:44;4.30;71.80
51215;DHT22;63849;47.546;19.254;2024-01-30T14:34:10;4.30;71.20
51215;DHT22;63849;47.546;19.254;2024-01-30T14:36:39;4.30;70.90
51215;DHT22;63849;47.546;19.254;2024-01-30T14:39:04;4.30;70.80
51215;DHT22;63849;47.546;19.254;2024-01-30T14:41:32;4.30;70.80
51215;DHT22;63849;47.546;19.254;2024-01-30T14:43:57;4.30;71.00
51215;DHT22;63849;47.546;19.254;2024-01-30T14:46:23;4.30;70.90
51215;DHT22;63849;47.546;19.254;2024-01-30T14:48:49;4.20;71.00
51215;DHT22;63849;47.546;19.254;2024-01-30T14:51:17;4.20;70.90
51215;DHT22;63849;47.546;19.254;2024-01-30T14:53:43;4.20;70.90
51215;DHT22;63849;47.546;19.254;2024-01-30T14:56:09;4.20;70.60
51215;DHT22;63849;47.546;19.254;2024-01-30T14:58:35;4.20;70.70
51215;DHT22;63849;47.546;19.254;2024-01-30T15:01:01;4.10;70.80
51215;DHT22;63849;47.546;19.254;2024-01-30T15:03:28;4.10;70.70
51215;DHT22;63849;47.546;19.254;2024-01-30T15:05:56;4.00;70.90
51215;DHT22;63849;47.546;19.254;2024-01-30T15:08:22;3.90;71.00
51215;DHT22;63849;47.546;19.254;2024-01-30T15:10:48;3.90;71.10
51215;DHT22;63849;47.546;19.254;2024-01-30T15:13:15;3.80;71.20
51215;DHT22;63849;47.546;19.254;2024-01-30T15:15:41;3.90;71.30
51215;DHT22;63849;47.546;19.254;2024-01-30T15:18:08;3.80;71.20
51215;DHT22;63849;47.546;19.254;2024-01-30T15:20:36;3.80;71.40
51215;DHT22;63849;47.546;19.254;2024-01-30T15:23:02;3.80;71.50
51215;DHT22;63849;47.546;19.254;2024-01-30T15:25:28;3.70;71.50
51215;DHT22;63849;47.546;19.254;2024-01-30T15:27:54;3.70;71.70